sensor_id;sensor_type;location;lat;lon;timestamp;P1;durP1;ratioP1;P2;durP2;ratioP2
19388;SDS011;9830;41.876;23.474;2023-02-04T00:00:56;0.10;;;0.10;;
19388;SDS011;9830;41.876;23.474;2023-02-04T00:03:21;0.60;;;0.57;;
19388;SDS011;9830;41.876;23.474;2023-02-04T00:05:47;0.00;;;0.00;;
19388;SDS011;9830;41.876;23.474;2023-02-04T00:08:13;1.20;;;0.57;;
19388;SDS011;9830;41.876;23.474;2023-02-04T00:10:39;0.00;;;0.00;;
19388;SDS011;9830;41.876;23.474;2023-02-04T00:13:04;0.57;;;0.57;;
19388;SDS011;9830;41.876;23.474;2023-02-04T00:15:30;1.30;;;1.20;;
19388;SDS011;9830;41.876;23.474;2023-02-04T00:17:56;0.20;;;0.20;;
19388;SDS011;9830;41.876;23.474;2023-02-04T00:20:22;0.17;;;0.17;;
19388;SDS011;9830;41.876;23.474;2023-02-04T00:22:47;0.00;;;0.00;;
19388;SDS011;9830;41.876;23.474;2023-02-04T00:25:13;0.73;;;0.73;;
19388;SDS011;9830;41.876;23.474;2023-02-04T00:27:39;0.27;;;0.27;;
19388;SDS011;9830;41.876;23.474;2023-02-04T00:30:05;0.20;;;0.20;;
19388;SDS011;9830;41.876;23.474;2023-02-04T00:32:32;2.00;;;0.47;;
19388;SDS011;9830;41.876;23.474;2023-02-04T00:34:57;2.00;;;1.03;;
19388;SDS011;9830;41.876;23.474;2023-02-04T00:37:23;0.10;;;0.10;;
19388;SDS011;9830;41.876;23.474;2023-02-04T00:39:49;2.23;;;0.50;;
19388;SDS011;9830;41.876;23.474;2023-02-04T00:42:15;0.83;;;0.43;;
19388;SDS011;9830;41.876;23.474;2023-02-04T00:44:41;0.13;;;0.13;;
19388;SDS011;9830;41.876;23.474;2023-02-04T00:47:07;0.20;;;0.13;;
19388;SDS011;9830;41.876;23.474;2023-02-04T00:49:32;0.53;;;0.53;;
19388;SDS011;9830;41.876;23.474;2023-02-04T00:51:59;0.03;;;0.03;;
19388;SDS011;9830;41.876;23.474;2023-02-04T00:54:25;0.00;;;0.00;;
19388;SDS011;9830;41.876;23.474;2023-02-04T00:56:51;0.00;;;0.00;;
19388;SDS011;9830;41.876;23.474;2023-02-04T00:59:16;0.00;;;0.00;;
19388;SDS011;9830;41.876;23.474;2023-02-04T01:01:42;0.00;;;0.00;;
19388;SDS011;9830;41.876;23.474;2023-02-04T01:04:08;0.30;;;0.30;;
19388;SDS011;9830;41.876;23.474;2023-02-04T01:06:34;0.00;;;0.00;;
19388;SDS011;9830;41.876;23.474;2023-02-04T01:09:00;0.03;;;0.03;;
19388;SDS011;9830;41.876;23.474;2023-02-04T01:11:26;0.00;;;0.00;;
19388;SDS011;9830;41.876;23.474;2023-02-04T01:13:52;0.00;;;0.00;;
19388;SDS011;9830;41.876;23.474;2023-02-04T01:16:18;0.23;;;0.23;;
19388;SDS011;9830;41.876;23.474;2023-02-04T01:18:44;0.30;;;0.30;;
19388;SDS011;9830;41.876;23.474;2023-02-04T01:21:10;0.00;;;0.00;;
19388;SDS011;9830;41.876;23.474;2023-02-04T01:23:36;0.00;;;0.00;;
19388;SDS011;9830;41.876;23.474;2023-02-04T01:26:02;0.00;;;0.00;;
19388;SDS011;9830;41.876;23.474;2023-02-04T01:28:28;0.00;;;0.00;;
19388;SDS011;9830;41.876;23.474;2023-02-04T01:30:54;0.00;;;0.00;;
19388;SDS011;9830;41.876;23.474;2023-02-04T01:33:20;0.20;;;0.20;;
19388;SDS011;9830;41.876;23.474;2023-02-04T01:35:46;0.00;;;0.00;;
19388;SDS011;9830;41.876;23.474;2023-02-04T01:38:12;0.00;;;0.00;;
19388;SDS011;9830;41.876;23.474;2023-02-04T01:40:37;0.00;;;0.00;;
19388;SDS011;9830;41.876;23.474;2023-02-04T01:43:03;0.00;;;0.00;;
19388;SDS011;9830;41.876;23.474;2023-02-04T01:45:30;0.00;;;0.00;;
19388;SDS011;9830;41.876;23.474;2023-02-04T01:47:58;1.93;;;0.47;;
19388;SDS011;9830;41.876;23.474;2023-02-04T01:50:24;0.00;;;0.00;;
19388;SDS011;9830;41.876;23.474;2023-02-04T01:52:50;0.00;;;0.00;;
19388;SDS011;9830;41.876;23.474;2023-02-04T01:55:17;0.27;;;0.23;;
19388;SDS011;9830;41.876;23.474;2023-02-04T01:57:44;0.30;;;0.30;;
19388;SDS011;9830;41.876;23.474;2023-02-04T02:00:16;0.57;;;0.10;;
19388;SDS011;9830;41.876;23.474;2023-02-04T02:02:46;0.00;;;0.00;;
19388;SDS011;9830;41.876;23.474;2023-02-04T02:05:18;0.00;;;0.00;;
19388;SDS011;9830;41.876;23.474;2023-02-04T02:07:48;1.10;;;0.33;;
19388;SDS011;9830;41.876;23.474;2023-02-04T02:10:15;0.20;;;0.20;;
19388;SDS011;9830;41.876;23.474;2023-02-04T02:12:42;0.00;;;0.00;;
19388;SDS011;9830;41.876;23.474;2023-02-04T02:15:09;0.27;;;0.07;;
19388;SDS011;9830;41.876;23.474;2023-02-04T02:17:36;0.00;;;0.00;;
19388;SDS011;9830;41.876;23.474;2023-02-04T02:20:02;0.00;;;0.00;;
19388;SDS011;9830;41.876;23.474;2023-02-04T02:25:12;0.00;;;0.00;;
19388;SDS011;9830;41.876;23.474;2023-02-04T02:27:39;0.00;;;0.00;;
19388;SDS011;9830;41.876;23.474;2023-02-04T02:30:05;0.00;;;0.00;;
19388;SDS011;9830;41.876;23.474;2023-02-04T02:32:33;0.00;;;0.00;;
19388;SDS011;9830;41.876;23.474;2023-02-04T02:35:00;1.40;;;0.30;;
19388;SDS011;9830;41.876;23.474;2023-02-04T02:37:26;0.20;;;0.20;;
19388;SDS011;9830;41.876;23.474;2023-02-04T02:39:51;0.30;;;0.30;;
19388;SDS011;9830;41.876;23.474;2023-02-04T02:42:17;0.00;;;0.00;;
19388;SDS011;9830;41.876;23.474;2023-02-04T02:44:44;0.00;;;0.00;;
19388;SDS011;9830;41.876;23.474;2023-02-04T02:47:16;0.27;;;0.27;;
19388;SDS011;9830;41.876;23.474;2023-02-04T02:49:46;0.20;;;0.17;;
19388;SDS011;9830;41.876;23.474;2023-02-04T02:52:14;0.10;;;0.10;;
19388;SDS011;9830;41.876;23.474;2023-02-04T02:54:40;0.00;;;0.00;;
19388;SDS011;9830;41.876;23.474;2023-02-04T02:57:11;0.00;;;0.00;;
19388;SDS011;9830;41.876;23.474;2023-02-04T02:59:41;0.50;;;0.40;;
19388;SDS011;9830;41.876;23.474;2023-02-04T03:02:08;0.00;;;0.00;;
19388;SDS011;9830;41.876;23.474;2023-02-04T03:04:39;0.00;;;0.00;;
19388;SDS011;9830;41.876;23.474;2023-02-04T03:07:07;0.00;;;0.00;;
19388;SDS011;9830;41.876;23.474;2023-02-04T03:09:33;0.40;;;0.40;;
19388;SDS011;9830;41.876;23.474;2023-02-04T03:12:00;0.87;;;0.87;;
19388;SDS011;9830;41.876;23.474;2023-02-04T03:14:27;0.40;;;0.40;;
19388;SDS011;9830;41.876;23.474;2023-02-04T03:16:53;0.00;;;0.00;;
19388;SDS011;9830;41.876;23.474;2023-02-04T03:19:21;0.30;;;0.30;;
19388;SDS011;9830;41.876;23.474;2023-02-04T03:21:48;0.53;;;0.53;;
19388;SDS011;9830;41.876;23.474;2023-02-04T03:24:15;0.00;;;0.00;;
19388;SDS011;9830;41.876;23.474;2023-02-04T03:26:41;0.20;;;0.20;;
19388;SDS011;9830;41.876;23.474;2023-02-04T03:29:07;0.10;;;0.10;;
19388;SDS011;9830;41.876;23.474;2023-02-04T03:31:34;0.00;;;0.00;;
19388;SDS011;9830;41.876;23.474;2023-02-04T03:34:01;0.00;;;0.00;;
19388;SDS011;9830;41.876;23.474;2023-02-04T03:36:27;0.00;;;0.00;;
19388;SDS011;9830;41.876;23.474;2023-02-04T03:38:53;0.00;;;0.00;;
19388;SDS011;9830;41.876;23.474;2023-02-04T03:41:19;0.47;;;0.47;;
19388;SDS011;9830;41.876;23.474;2023-02-04T03:43:45;0.33;;;0.33;;
19388;SDS011;9830;41.876;23.474;2023-02-04T03:46:11;0.00;;;0.00;;
19388;SDS011;9830;41.876;23.474;2023-02-04T03:48:36;0.10;;;0.10;;
19388;SDS011;9830;41.876;23.474;2023-02-04T03:51:02;2.63;;;0.93;;
19388;SDS011;9830;41.876;23.474;2023-02-04T03:53:28;0.50;;;0.50;;
19388;SDS011;9830;41.876;23.474;2023-02-04T03:55:54;0.00;;;0.00;;
19388;SDS011;9830;41.876;23.474;2023-02-04T03:58:19;0.00;;;0.00;;
19388;SDS011;9830;41.876;23.474;2023-02-04T04:00:45;0.00;;;0.00;;
19388;SDS011;9830;41.876;23.474;2023-02-04T04:03:11;0.10;;;0.07;;
19388;SDS011;9830;41.876;23.474;2023-02-04T04:05:36;0.10;;;0.10;;
19388;SDS011;9830;41.876;23.474;2023-02-04T04:08:02;0.00;;;0.00;;
19388;SDS011;9830;41.876;23.474;2023-02-04T04:10:28;0.20;;;0.20;;
19388;SDS011;9830;41.876;23.474;2023-02-04T04:12:54;0.20;;;0.10;;
19388;SDS011;9830;41.876;23.474;2023-02-04T04:15:19;0.00;;;0.00;;
19388;SDS011;9830;41.876;23.474;2023-02-04T04:17:45;0.00;;;0.00;;
19388;SDS011;9830;41.876;23.474;2023-02-04T04:20:11;0.20;;;0.20;;
19388;SDS011;9830;41.876;23.474;2023-02-04T04:22:36;0.00;;;0.00;;
19388;SDS011;9830;41.876;23.474;2023-02-04T04:25:03;0.10;;;0.10;;
19388;SDS011;9830;41.876;23.474;2023-02-04T04:27:29;0.00;;;0.00;;
19388;SDS011;9830;41.876;23.474;2023-02-04T04:29:55;0.00;;;0.00;;
19388;SDS011;9830;41.876;23.474;2023-02-04T04:32:21;0.77;;;0.53;;
19388;SDS011;9830;41.876;23.474;2023-02-04T04:34:46;0.00;;;0.00;;
19388;SDS011;9830;41.876;23.474;2023-02-04T04:37:12;0.00;;;0.00;;
19388;SDS011;9830;41.876;23.474;2023-02-04T04:39:38;0.00;;;0.00;;
19388;SDS011;9830;41.876;23.474;2023-02-04T04:42:04;0.00;;;0.00;;
19388;SDS011;9830;41.876;23.474;2023-02-04T04:44:29;0.10;;;0.10;;
19388;SDS011;9830;41.876;23.474;2023-02-04T04:46:55;2.87;;;1.10;;
19388;SDS011;9830;41.876;23.474;2023-02-04T04:49:21;0.20;;;0.13;;
19388;SDS011;9830;41.876;23.474;2023-02-04T04:51:46;0.00;;;0.00;;
19388;SDS011;9830;41.876;23.474;2023-02-04T04:54:12;1.67;;;0.53;;
19388;SDS011;9830;41.876;23.474;2023-02-04T04:56:38;0.00;;;0.00;;
19388;SDS011;9830;41.876;23.474;2023-02-04T04:59:03;0.10;;;0.10;;
19388;SDS011;9830;41.876;23.474;2023-02-04T05:01:29;0.10;;;0.10;;
19388;SDS011;9830;41.876;23.474;2023-02-04T05:03:55;0.30;;;0.13;;
19388;SDS011;9830;41.876;23.474;2023-02-04T05:06:20;0.00;;;0.00;;
19388;SDS011;9830;41.876;23.474;2023-02-04T05:08:50;0.00;;;0.00;;
19388;SDS011;9830;41.876;23.474;2023-02-04T05:11:19;0.37;;;0.17;;
19388;SDS011;9830;41.876;23.474;2023-02-04T05:13:45;0.07;;;0.07;;
19388;SDS011;9830;41.876;23.474;2023-02-04T05:16:11;0.73;;;0.30;;
19388;SDS011;9830;41.876;23.474;2023-02-04T05:18:40;0.00;;;0.00;;
19388;SDS011;9830;41.876;23.474;2023-02-04T05:21:06;6.60;;;0.40;;
19388;SDS011;9830;41.876;23.474;2023-02-04T05:23:32;0.10;;;0.10;;
19388;SDS011;9830;41.876;23.474;2023-02-04T05:25:58;0.03;;;0.03;;
19388;SDS011;9830;41.876;23.474;2023-02-04T05:28:24;1.20;;;0.93;;
19388;SDS011;9830;41.876;23.474;2023-02-04T05:30:50;0.73;;;0.53;;
19388;SDS011;9830;41.876;23.474;2023-02-04T05:33:16;1.27;;;1.27;;
19388;SDS011;9830;41.876;23.474;2023-02-04T05:35:41;2.77;;;1.67;;
19388;SDS011;9830;41.876;23.474;2023-02-04T05:38:07;6.93;;;1.63;;
19388;SDS011;9830;41.876;23.474;2023-02-04T05:40:33;0.73;;;0.73;;
19388;SDS011;9830;41.876;23.474;2023-02-04T05:42:59;0.60;;;0.60;;
19388;SDS011;9830;41.876;23.474;2023-02-04T05:45:25;2.57;;;1.27;;
19388;SDS011;9830;41.876;23.474;2023-02-04T05:47:50;3.47;;;1.67;;
19388;SDS011;9830;41.876;23.474;2023-02-04T05:50:16;3.10;;;1.47;;
19388;SDS011;9830;41.876;23.474;2023-02-04T05:52:42;5.00;;;2.73;;
19388;SDS011;9830;41.876;23.474;2023-02-04T05:55:09;11.70;;;2.23;;
19388;SDS011;9830;41.876;23.474;2023-02-04T05:57:35;4.20;;;2.17;;
19388;SDS011;9830;41.876;23.474;2023-02-04T06:00:02;3.50;;;1.53;;
19388;SDS011;9830;41.876;23.474;2023-02-04T06:02:28;0.90;;;0.90;;
19388;SDS011;9830;41.876;23.474;2023-02-04T06:04:53;4.27;;;3.33;;
19388;SDS011;9830;41.876;23.474;2023-02-04T06:07:19;2.60;;;2.23;;
19388;SDS011;9830;41.876;23.474;2023-02-04T06:09:44;1.03;;;1.03;;
19388;SDS011;9830;41.876;23.474;2023-02-04T06:12:10;3.17;;;1.27;;
19388;SDS011;9830;41.876;23.474;2023-02-04T06:14:36;2.30;;;2.20;;
19388;SDS011;9830;41.876;23.474;2023-02-04T06:17:01;4.43;;;2.87;;
19388;SDS011;9830;41.876;23.474;2023-02-04T06:19:27;3.23;;;1.63;;
19388;SDS011;9830;41.876;23.474;2023-02-04T06:21:53;2.73;;;1.13;;
19388;SDS011;9830;41.876;23.474;2023-02-04T06:24:18;13.67;;;3.70;;
19388;SDS011;9830;41.876;23.474;2023-02-04T06:26:44;11.43;;;3.60;;
19388;SDS011;9830;41.876;23.474;2023-02-04T06:29:10;1.90;;;1.37;;
19388;SDS011;9830;41.876;23.474;2023-02-04T06:31:35;2.37;;;2.17;;
19388;SDS011;9830;41.876;23.474;2023-02-04T06:34:03;1.13;;;1.03;;
19388;SDS011;9830;41.876;23.474;2023-02-04T06:36:29;2.40;;;0.80;;
19388;SDS011;9830;41.876;23.474;2023-02-04T06:38:55;1.23;;;1.00;;
19388;SDS011;9830;41.876;23.474;2023-02-04T06:41:21;0.60;;;0.60;;
19388;SDS011;9830;41.876;23.474;2023-02-04T06:43:47;0.83;;;0.83;;
19388;SDS011;9830;41.876;23.474;2023-02-04T06:46:13;0.63;;;0.53;;
19388;SDS011;9830;41.876;23.474;2023-02-04T06:48:38;0.10;;;0.10;;
19388;SDS011;9830;41.876;23.474;2023-02-04T06:51:04;0.30;;;0.30;;
19388;SDS011;9830;41.876;23.474;2023-02-04T06:53:30;1.20;;;0.67;;
19388;SDS011;9830;41.876;23.474;2023-02-04T06:55:55;0.40;;;0.40;;
19388;SDS011;9830;41.876;23.474;2023-02-04T06:58:21;0.17;;;0.17;;
19388;SDS011;9830;41.876;23.474;2023-02-04T07:00:47;0.67;;;0.67;;
19388;SDS011;9830;41.876;23.474;2023-02-04T07:03:12;1.23;;;1.13;;
19388;SDS011;9830;41.876;23.474;2023-02-04T07:05:38;0.73;;;0.73;;
19388;SDS011;9830;41.876;23.474;2023-02-04T07:08:04;1.20;;;0.87;;
19388;SDS011;9830;41.876;23.474;2023-02-04T07:10:29;0.43;;;0.43;;
19388;SDS011;9830;41.876;23.474;2023-02-04T07:12:56;0.30;;;0.30;;
19388;SDS011;9830;41.876;23.474;2023-02-04T07:15:22;0.27;;;0.23;;
19388;SDS011;9830;41.876;23.474;2023-02-04T07:17:48;0.00;;;0.00;;
19388;SDS011;9830;41.876;23.474;2023-02-04T07:20:14;0.00;;;0.00;;
19388;SDS011;9830;41.876;23.474;2023-02-04T07:22:39;0.00;;;0.00;;
19388;SDS011;9830;41.876;23.474;2023-02-04T07:25:06;0.00;;;0.00;;
19388;SDS011;9830;41.876;23.474;2023-02-04T07:27:32;0.00;;;0.00;;
19388;SDS011;9830;41.876;23.474;2023-02-04T07:29:58;0.00;;;0.00;;
19388;SDS011;9830;41.876;23.474;2023-02-04T07:32:23;0.00;;;0.00;;
19388;SDS011;9830;41.876;23.474;2023-02-04T07:34:51;0.00;;;0.00;;
19388;SDS011;9830;41.876;23.474;2023-02-04T07:37:17;0.00;;;0.00;;
19388;SDS011;9830;41.876;23.474;2023-02-04T07:39:44;0.00;;;0.00;;
19388;SDS011;9830;41.876;23.474;2023-02-04T07:42:10;0.10;;;0.10;;
19388;SDS011;9830;41.876;23.474;2023-02-04T07:44:36;0.00;;;0.00;;
19388;SDS011;9830;41.876;23.474;2023-02-04T07:47:02;0.00;;;0.00;;
19388;SDS011;9830;41.876;23.474;2023-02-04T07:49:28;0.00;;;0.00;;
19388;SDS011;9830;41.876;23.474;2023-02-04T07:51:54;0.00;;;0.00;;
19388;SDS011;9830;41.876;23.474;2023-02-04T07:54:20;0.00;;;0.00;;
19388;SDS011;9830;41.876;23.474;2023-02-04T07:56:45;0.00;;;0.00;;
19388;SDS011;9830;41.876;23.474;2023-02-04T07:59:11;0.07;;;0.07;;
19388;SDS011;9830;41.876;23.474;2023-02-04T08:01:37;0.00;;;0.00;;
19388;SDS011;9830;41.876;23.474;2023-02-04T08:04:02;0.37;;;0.20;;
19388;SDS011;9830;41.876;23.474;2023-02-04T08:06:28;0.00;;;0.00;;
19388;SDS011;9830;41.876;23.474;2023-02-04T08:08:54;0.00;;;0.00;;
19388;SDS011;9830;41.876;23.474;2023-02-04T08:11:19;0.63;;;0.60;;
19388;SDS011;9830;41.876;23.474;2023-02-04T08:13:45;0.00;;;0.00;;
19388;SDS011;9830;41.876;23.474;2023-02-04T08:16:11;0.00;;;0.00;;
19388;SDS011;9830;41.876;23.474;2023-02-04T08:18:36;0.00;;;0.00;;
19388;SDS011;9830;41.876;23.474;2023-02-04T08:21:02;0.00;;;0.00;;
19388;SDS011;9830;41.876;23.474;2023-02-04T08:23:29;0.10;;;0.10;;
19388;SDS011;9830;41.876;23.474;2023-02-04T08:25:55;0.00;;;0.00;;
19388;SDS011;9830;41.876;23.474;2023-02-04T08:28:20;0.10;;;0.10;;
19388;SDS011;9830;41.876;23.474;2023-02-04T08:30:46;0.10;;;0.10;;
19388;SDS011;9830;41.876;23.474;2023-02-04T08:33:12;0.00;;;0.00;;
19388;SDS011;9830;41.876;23.474;2023-02-04T08:35:38;0.10;;;0.10;;
19388;SDS011;9830;41.876;23.474;2023-02-04T08:38:03;0.00;;;0.00;;
19388;SDS011;9830;41.876;23.474;2023-02-04T08:40:29;0.00;;;0.00;;
19388;SDS011;9830;41.876;23.474;2023-02-04T08:42:54;0.00;;;0.00;;
19388;SDS011;9830;41.876;23.474;2023-02-04T08:45:20;0.00;;;0.00;;
19388;SDS011;9830;41.876;23.474;2023-02-04T08:47:46;0.60;;;0.60;;
19388;SDS011;9830;41.876;23.474;2023-02-04T08:50:11;0.00;;;0.00;;
19388;SDS011;9830;41.876;23.474;2023-02-04T08:52:37;0.10;;;0.10;;
19388;SDS011;9830;41.876;23.474;2023-02-04T08:55:03;1.30;;;0.33;;
19388;SDS011;9830;41.876;23.474;2023-02-04T08:57:29;0.10;;;0.10;;
19388;SDS011;9830;41.876;23.474;2023-02-04T08:59:54;0.00;;;0.00;;
19388;SDS011;9830;41.876;23.474;2023-02-04T09:02:20;0.00;;;0.00;;
19388;SDS011;9830;41.876;23.474;2023-02-04T09:04:46;0.03;;;0.03;;
19388;SDS011;9830;41.876;23.474;2023-02-04T09:07:11;0.00;;;0.00;;
19388;SDS011;9830;41.876;23.474;2023-02-04T09:09:37;0.00;;;0.00;;
19388;SDS011;9830;41.876;23.474;2023-02-04T09:12:03;0.00;;;0.00;;
19388;SDS011;9830;41.876;23.474;2023-02-04T09:14:28;0.47;;;0.07;;
19388;SDS011;9830;41.876;23.474;2023-02-04T09:16:54;0.00;;;0.00;;
19388;SDS011;9830;41.876;23.474;2023-02-04T09:19:19;0.00;;;0.00;;
19388;SDS011;9830;41.876;23.474;2023-02-04T09:21:49;0.00;;;0.00;;
19388;SDS011;9830;41.876;23.474;2023-02-04T09:24:16;0.00;;;0.00;;
19388;SDS011;9830;41.876;23.474;2023-02-04T09:26:42;0.10;;;0.00;;
19388;SDS011;9830;41.876;23.474;2023-02-04T09:29:08;0.00;;;0.00;;
19388;SDS011;9830;41.876;23.474;2023-02-04T09:31:33;0.00;;;0.00;;
19388;SDS011;9830;41.876;23.474;2023-02-04T09:33:59;0.00;;;0.00;;
19388;SDS011;9830;41.876;23.474;2023-02-04T09:36:24;0.00;;;0.00;;
19388;SDS011;9830;41.876;23.474;2023-02-04T09:38:53;0.00;;;0.00;;
19388;SDS011;9830;41.876;23.474;2023-02-04T09:41:19;0.00;;;0.00;;
19388;SDS011;9830;41.876;23.474;2023-02-04T09:43:45;0.10;;;0.10;;
19388;SDS011;9830;41.876;23.474;2023-02-04T09:46:21;1.50;;;1.03;;
19388;SDS011;9830;41.876;23.474;2023-02-04T09:48:49;3.63;;;1.27;;
19388;SDS011;9830;41.876;23.474;2023-02-04T09:51:18;0.40;;;0.40;;
19388;SDS011;9830;41.876;23.474;2023-02-04T09:53:46;1.00;;;0.63;;
19388;SDS011;9830;41.876;23.474;2023-02-04T09:56:12;0.10;;;0.10;;
19388;SDS011;9830;41.876;23.474;2023-02-04T09:58:39;0.10;;;0.10;;
19388;SDS011;9830;41.876;23.474;2023-02-04T10:01:25;0.00;;;0.00;;
19388;SDS011;9830;41.876;23.474;2023-02-04T10:03:52;0.60;;;0.30;;
19388;SDS011;9830;41.876;23.474;2023-02-04T10:06:22;0.03;;;0.03;;
19388;SDS011;9830;41.876;23.474;2023-02-04T10:08:48;0.00;;;0.00;;
19388;SDS011;9830;41.876;23.474;2023-02-04T10:11:16;0.00;;;0.00;;
19388;SDS011;9830;41.876;23.474;2023-02-04T10:13:45;0.00;;;0.00;;
19388;SDS011;9830;41.876;23.474;2023-02-04T10:16:22;0.00;;;0.00;;
19388;SDS011;9830;41.876;23.474;2023-02-04T10:18:54;0.00;;;0.00;;
19388;SDS011;9830;41.876;23.474;2023-02-04T10:21:33;0.10;;;0.10;;
19388;SDS011;9830;41.876;23.474;2023-02-04T10:24:04;0.00;;;0.00;;
19388;SDS011;9830;41.876;23.474;2023-02-04T10:26:35;0.00;;;0.00;;
19388;SDS011;9830;41.876;23.474;2023-02-04T10:29:02;0.00;;;0.00;;
19388;SDS011;9830;41.876;23.474;2023-02-04T10:31:49;0.00;;;0.00;;
19388;SDS011;9830;41.876;23.474;2023-02-04T10:36:58;0.00;;;0.00;;
19388;SDS011;9830;41.876;23.474;2023-02-04T10:39:28;0.00;;;0.00;;
19388;SDS011;9830;41.876;23.474;2023-02-04T10:41:58;0.20;;;0.20;;
19388;SDS011;9830;41.876;23.474;2023-02-04T10:47:03;0.53;;;0.23;;
19388;SDS011;9830;41.876;23.474;2023-02-04T10:49:30;0.20;;;0.20;;
19388;SDS011;9830;41.876;23.474;2023-02-04T10:51:57;0.87;;;0.47;;
19388;SDS011;9830;41.876;23.474;2023-02-04T10:54:28;0.00;;;0.00;;
19388;SDS011;9830;41.876;23.474;2023-02-04T10:57:13;0.10;;;0.10;;
19388;SDS011;9830;41.876;23.474;2023-02-04T10:59:41;0.00;;;0.00;;
19388;SDS011;9830;41.876;23.474;2023-02-04T11:02:30;0.00;;;0.00;;
19388;SDS011;9830;41.876;23.474;2023-02-04T11:04:56;0.00;;;0.00;;
19388;SDS011;9830;41.876;23.474;2023-02-04T11:07:22;0.00;;;0.00;;
19388;SDS011;9830;41.876;23.474;2023-02-04T11:09:48;0.00;;;0.00;;
19388;SDS011;9830;41.876;23.474;2023-02-04T11:12:21;0.00;;;0.00;;
19388;SDS011;9830;41.876;23.474;2023-02-04T11:14:55;2.33;;;0.53;;
19388;SDS011;9830;41.876;23.474;2023-02-04T11:17:27;1.20;;;0.60;;
19388;SDS011;9830;41.876;23.474;2023-02-04T11:19:55;0.00;;;0.00;;
19388;SDS011;9830;41.876;23.474;2023-02-04T11:22:40;0.00;;;0.00;;
19388;SDS011;9830;41.876;23.474;2023-02-04T11:27:56;0.00;;;0.00;;
19388;SDS011;9830;41.876;23.474;2023-02-04T11:30:22;0.00;;;0.00;;
19388;SDS011;9830;41.876;23.474;2023-02-04T11:32:55;0.00;;;0.00;;
19388;SDS011;9830;41.876;23.474;2023-02-04T11:35:26;0.03;;;0.03;;
19388;SDS011;9830;41.876;23.474;2023-02-04T11:37:53;0.87;;;0.37;;
19388;SDS011;9830;41.876;23.474;2023-02-04T11:40:20;0.93;;;0.30;;
19388;SDS011;9830;41.876;23.474;2023-02-04T11:42:55;1.60;;;1.27;;
19388;SDS011;9830;41.876;23.474;2023-02-04T11:45:24;0.00;;;0.00;;
19388;SDS011;9830;41.876;23.474;2023-02-04T11:47:56;0.00;;;0.00;;
19388;SDS011;9830;41.876;23.474;2023-02-04T11:52:55;0.00;;;0.00;;
19388;SDS011;9830;41.876;23.474;2023-02-04T11:55:22;0.30;;;0.27;;
19388;SDS011;9830;41.876;23.474;2023-02-04T11:57:52;0.00;;;0.00;;
19388;SDS011;9830;41.876;23.474;2023-02-04T12:00:20;0.13;;;0.13;;
19388;SDS011;9830;41.876;23.474;2023-02-04T12:02:48;0.37;;;0.10;;
19388;SDS011;9830;41.876;23.474;2023-02-04T12:05:19;0.53;;;0.20;;
19388;SDS011;9830;41.876;23.474;2023-02-04T12:07:45;0.00;;;0.00;;
19388;SDS011;9830;41.876;23.474;2023-02-04T12:12:49;0.20;;;0.20;;
19388;SDS011;9830;41.876;23.474;2023-02-04T12:15:24;0.00;;;0.00;;
19388;SDS011;9830;41.876;23.474;2023-02-04T12:18:04;0.00;;;0.00;;
19388;SDS011;9830;41.876;23.474;2023-02-04T12:20:36;0.00;;;0.00;;
19388;SDS011;9830;41.876;23.474;2023-02-04T12:23:03;0.00;;;0.00;;
19388;SDS011;9830;41.876;23.474;2023-02-04T12:25:29;0.07;;;0.07;;
19388;SDS011;9830;41.876;23.474;2023-02-04T12:27:55;0.00;;;0.00;;
19388;SDS011;9830;41.876;23.474;2023-02-04T12:30:22;0.00;;;0.00;;
19388;SDS011;9830;41.876;23.474;2023-02-04T12:32:49;0.30;;;0.17;;
19388;SDS011;9830;41.876;23.474;2023-02-04T12:35:15;0.03;;;0.03;;
19388;SDS011;9830;41.876;23.474;2023-02-04T12:37:41;0.00;;;0.00;;
19388;SDS011;9830;41.876;23.474;2023-02-04T12:40:07;2.53;;;0.37;;
19388;SDS011;9830;41.876;23.474;2023-02-04T12:42:37;0.00;;;0.00;;
19388;SDS011;9830;41.876;23.474;2023-02-04T12:45:03;0.00;;;0.00;;
19388;SDS011;9830;41.876;23.474;2023-02-04T12:47:29;0.07;;;0.07;;
19388;SDS011;9830;41.876;23.474;2023-02-04T12:49:54;0.00;;;0.00;;
19388;SDS011;9830;41.876;23.474;2023-02-04T12:52:20;0.00;;;0.00;;
19388;SDS011;9830;41.876;23.474;2023-02-04T12:54:46;0.10;;;0.10;;
19388;SDS011;9830;41.876;23.474;2023-02-04T12:57:11;0.50;;;0.50;;
19388;SDS011;9830;41.876;23.474;2023-02-04T12:59:38;0.00;;;0.00;;
19388;SDS011;9830;41.876;23.474;2023-02-04T13:02:04;0.13;;;0.13;;
19388;SDS011;9830;41.876;23.474;2023-02-04T13:04:30;0.00;;;0.00;;
19388;SDS011;9830;41.876;23.474;2023-02-04T13:06:56;0.07;;;0.07;;
19388;SDS011;9830;41.876;23.474;2023-02-04T13:09:21;0.10;;;0.10;;
19388;SDS011;9830;41.876;23.474;2023-02-04T13:11:47;0.00;;;0.00;;
19388;SDS011;9830;41.876;23.474;2023-02-04T13:14:12;0.00;;;0.00;;
19388;SDS011;9830;41.876;23.474;2023-02-04T13:16:38;0.00;;;0.00;;
19388;SDS011;9830;41.876;23.474;2023-02-04T13:19:04;0.13;;;0.13;;
19388;SDS011;9830;41.876;23.474;2023-02-04T13:21:29;0.27;;;0.27;;
19388;SDS011;9830;41.876;23.474;2023-02-04T13:23:55;0.00;;;0.00;;
19388;SDS011;9830;41.876;23.474;2023-02-04T13:26:21;0.53;;;0.20;;
19388;SDS011;9830;41.876;23.474;2023-02-04T13:28:46;0.10;;;0.10;;
19388;SDS011;9830;41.876;23.474;2023-02-04T13:31:12;0.00;;;0.00;;
19388;SDS011;9830;41.876;23.474;2023-02-04T13:33:38;0.00;;;0.00;;
19388;SDS011;9830;41.876;23.474;2023-02-04T13:36:04;0.00;;;0.00;;
19388;SDS011;9830;41.876;23.474;2023-02-04T13:38:30;0.00;;;0.00;;
19388;SDS011;9830;41.876;23.474;2023-02-04T13:40:55;0.00;;;0.00;;
19388;SDS011;9830;41.876;23.474;2023-02-04T13:43:21;0.00;;;0.00;;
19388;SDS011;9830;41.876;23.474;2023-02-04T13:45:47;0.00;;;0.00;;
19388;SDS011;9830;41.876;23.474;2023-02-04T13:48:13;0.00;;;0.00;;
19388;SDS011;9830;41.876;23.474;2023-02-04T13:50:40;0.00;;;0.00;;
19388;SDS011;9830;41.876;23.474;2023-02-04T13:53:05;0.00;;;0.00;;
19388;SDS011;9830;41.876;23.474;2023-02-04T13:55:32;0.00;;;0.00;;
19388;SDS011;9830;41.876;23.474;2023-02-04T13:57:58;0.00;;;0.00;;
19388;SDS011;9830;41.876;23.474;2023-02-04T14:00:23;0.00;;;0.00;;
19388;SDS011;9830;41.876;23.474;2023-02-04T14:02:49;0.00;;;0.00;;
19388;SDS011;9830;41.876;23.474;2023-02-04T14:05:15;0.00;;;0.00;;
19388;SDS011;9830;41.876;23.474;2023-02-04T14:07:40;0.10;;;0.10;;
19388;SDS011;9830;41.876;23.474;2023-02-04T14:10:06;0.00;;;0.00;;
19388;SDS011;9830;41.876;23.474;2023-02-04T14:12:32;0.00;;;0.00;;
19388;SDS011;9830;41.876;23.474;2023-02-04T14:14:57;0.00;;;0.00;;
19388;SDS011;9830;41.876;23.474;2023-02-04T14:17:23;0.00;;;0.00;;
19388;SDS011;9830;41.876;23.474;2023-02-04T14:19:49;0.00;;;0.00;;
19388;SDS011;9830;41.876;23.474;2023-02-04T14:22:15;0.00;;;0.00;;
19388;SDS011;9830;41.876;23.474;2023-02-04T14:24:41;0.00;;;0.00;;
19388;SDS011;9830;41.876;23.474;2023-02-04T14:27:07;0.00;;;0.00;;
19388;SDS011;9830;41.876;23.474;2023-02-04T14:29:34;0.63;;;0.63;;
19388;SDS011;9830;41.876;23.474;2023-02-04T14:32:00;0.20;;;0.20;;
19388;SDS011;9830;41.876;23.474;2023-02-04T14:34:25;2.03;;;0.70;;
19388;SDS011;9830;41.876;23.474;2023-02-04T14:36:51;1.50;;;0.87;;
19388;SDS011;9830;41.876;23.474;2023-02-04T14:39:17;0.07;;;0.07;;
19388;SDS011;9830;41.876;23.474;2023-02-04T14:41:42;0.23;;;0.23;;
19388;SDS011;9830;41.876;23.474;2023-02-04T14:44:08;0.00;;;0.00;;
19388;SDS011;9830;41.876;23.474;2023-02-04T14:46:34;0.13;;;0.13;;
19388;SDS011;9830;41.876;23.474;2023-02-04T14:49:00;1.30;;;0.83;;
19388;SDS011;9830;41.876;23.474;2023-02-04T14:51:26;0.00;;;0.00;;
19388;SDS011;9830;41.876;23.474;2023-02-04T14:53:52;0.10;;;0.10;;
19388;SDS011;9830;41.876;23.474;2023-02-04T14:56:17;0.00;;;0.00;;
19388;SDS011;9830;41.876;23.474;2023-02-04T14:58:43;0.13;;;0.13;;
19388;SDS011;9830;41.876;23.474;2023-02-04T15:01:09;0.00;;;0.00;;